Time;durP1;ratioP1;P1;durP2;ratioP2;P2;SDS_P1;SDS_P2;PMS_P1;PMS_P2;Temp;Humidity;BMP_temperature;BMP_pressure;BME280_temperature;BME280_humidity;BME280_pressure;Samples;Min_cycle;Max_cycle;Signal;HPM_P1;HPM_P2
2021/03/18 00:01:05;;;;;;;2.22;0.00;;;1.60;99.90;;;;;;5056096;28;20025;-76
2021/03/18 00:03:33;;;;;;;5.15;0.00;;;1.60;99.90;;;;;;5055874;28;20036;-76
2021/03/18 00:05:59;;;;;;;4.20;0.73;;;1.50;99.90;;;;;;5055543;28;20036;-75
2021/03/18 00:08:25;;;;;;;2.53;0.13;;;1.50;99.90;;;;;;5056402;28;20028;-76
2021/03/18 00:10:52;;;;;;;1.27;0.00;;;1.50;99.90;;;;;;5055754;28;20025;-75
2021/03/18 00:13:20;;;;;;;1.70;0.35;;;1.40;99.90;;;;;;5055579;28;20021;-75
2021/03/18 00:15:46;;;;;;;7.35;0.32;;;1.40;99.90;;;;;;5058382;28;20033;-76
2021/03/18 00:18:13;;;;;;;6.55;0.40;;;1.30;99.90;;;;;;5055002;28;20543;-73
2021/03/18 00:20:39;;;;;;;5.72;0.30;;;1.30;99.90;;;;;;5056680;28;20036;-75
2021/03/18 00:23:05;;;;;;;5.47;0.75;;;1.30;99.90;;;;;;5056051;28;20167;-76
2021/03/18 00:25:31;;;;;;;9.63;0.35;;;1.30;99.90;;;;;;5040524;28;20017;-73
2021/03/18 00:27:57;;;;;;;5.32;0.38;;;1.30;99.90;;;;;;5040176;28;20024;-76
2021/03/18 00:30:24;;;;;;;8.73;0.45;;;1.30;99.90;;;;;;5038394;28;20482;-77
2021/03/18 00:32:51;;;;;;;5.18;0.30;;;1.30;99.90;;;;;;5058556;28;20385;-73
2021/03/18 00:35:18;;;;;;;5.60;0.10;;;1.20;99.90;;;;;;5055366;28;20033;-74
2021/03/18 00:37:45;;;;;;;4.43;0.68;;;1.20;99.90;;;;;;5055757;28;20032;-76
2021/03/18 00:40:16;;;;;;;5.50;0.40;;;1.20;99.90;;;;;;5037616;28;20112;-75
2021/03/18 00:42:57;;;;;;;7.35;0.25;;;1.20;99.90;;;;;;5037271;28;20021;-73
2021/03/18 00:45:24;;;;;;;3.03;0.10;;;1.20;99.90;;;;;;5054812;28;20017;-76
2021/03/18 00:47:50;;;;;;;9.18;0.93;;;1.30;99.90;;;;;;5055230;28;20025;-78
2021/03/18 00:50:26;;;;;;;3.13;0.28;;;1.20;99.90;;;;;;5056926;28;20474;-73
2021/03/18 00:52:52;;;;;;;6.88;0.20;;;1.20;99.90;;;;;;5055525;28;20363;-78
2021/03/18 00:55:17;;;;;;;5.15;0.35;;;1.20;99.90;;;;;;5036795;28;20029;-74
2021/03/18 00:57:43;;;;;;;2.25;0.10;;;1.30;99.90;;;;;;5055976;28;20021;-78
2021/03/18 01:00:23;;;;;;;7.82;0.60;;;1.30;99.90;;;;;;5056047;28;20053;-78
2021/03/18 01:02:53;;;;;;;3.92;0.20;;;1.30;99.90;;;;;;5055135;28;20044;-75
2021/03/18 01:05:27;;;;;;;6.90;0.73;;;1.30;99.90;;;;;;5056669;28;20036;-75
2021/03/18 01:07:53;;;;;;;3.90;0.20;;;1.40;99.90;;;;;;5040082;28;20025;-74
2021/03/18 01:10:20;;;;;;;4.38;0.22;;;1.40;99.90;;;;;;5058460;28;20064;-75
2021/03/18 01:12:46;;;;;;;4.22;0.45;;;1.50;99.90;;;;;;5037376;28;20036;-77
2021/03/18 01:15:13;;;;;;;4.22;0.10;;;1.50;99.90;;;;;;5037489;28;20505;-73
2021/03/18 01:17:39;;;;;;;3.05;0.22;;;1.60;99.90;;;;;;5055330;28;20496;-78
2021/03/18 01:20:08;;;;;;;6.70;0.52;;;1.60;99.90;;;;;;5057090;28;20498;-79
2021/03/18 01:22:34;;;;;;;;;;;1.60;99.90;;;;;;5037542;28;20044;-79
2021/03/18 01:24:59;;;;;;;10.57;0.63;;;1.60;99.90;;;;;;5055024;28;20011;-76
2021/03/18 01:27:25;;;;;;;2.22;0.10;;;1.60;99.90;;;;;;5037108;28;20116;-78
2021/03/18 01:29:51;;;;;;;4.13;0.25;;;1.60;99.90;;;;;;5039567;28;20499;-77
2021/03/18 01:32:17;;;;;;;10.98;1.38;;;1.60;99.90;;;;;;5041386;28;20037;-75
2021/03/18 01:34:43;;;;;;;8.65;0.80;;;1.60;99.90;;;;;;5058762;28;20029;-74
2021/03/18 01:37:08;;;;;;;2.72;0.47;;;1.50;99.90;;;;;;5069912;23;20049;-77
2021/03/18 01:39:34;;;;;;;2.08;0.00;;;1.50;99.90;;;;;;5058884;28;20021;-79
2021/03/18 01:42:00;;;;;;;3.50;0.08;;;1.50;99.90;;;;;;5058714;28;20140;-77
2021/03/18 01:44:26;;;;;;;5.68;0.65;;;1.40;99.90;;;;;;5059174;28;20018;-77
2021/03/18 01:46:51;;;;;;;5.57;0.85;;;1.40;99.90;;;;;;5058724;28;20029;-79
2021/03/18 01:49:18;;;;;;;7.25;1.75;;;1.40;99.90;;;;;;5058515;28;20075;-79
2021/03/18 01:51:44;;;;;;;6.05;1.05;;;1.30;99.90;;;;;;5057433;28;20041;-77
2021/03/18 01:54:11;;;;;;;3.05;0.57;;;1.30;99.90;;;;;;5057677;28;20040;-77
2021/03/18 01:56:37;;;;;;;5.05;0.22;;;1.40;99.90;;;;;;5057785;28;20390;-79
2021/03/18 01:59:02;;;;;;;3.67;0.22;;;1.40;99.90;;;;;;5056937;28;20029;-78
2021/03/18 02:01:28;;;;;;;2.80;1.17;;;1.30;99.90;;;;;;5058167;28;20394;-77
2021/03/18 02:03:53;;;;;;;6.30;0.40;;;1.30;99.90;;;;;;5057483;28;20021;-77
2021/03/18 02:06:20;;;;;;;4.72;0.43;;;1.30;99.90;;;;;;5059587;28;20078;-74
2021/03/18 02:08:45;;;;;;;2.42;0.05;;;1.30;99.90;;;;;;5062683;28;20029;-80
2021/03/18 02:11:11;;;;;;;6.45;0.10;;;1.30;99.90;;;;;;5057650;28;20021;-78
2021/03/18 02:13:36;;;;;;;5.25;0.25;;;1.30;99.90;;;;;;5057918;28;20488;-78
2021/03/18 02:16:11;;;;;;;3.90;0.50;;;1.30;99.90;;;;;;5057076;28;20043;-78
2021/03/18 02:18:55;;;;;;;3.85;0.25;;;1.30;99.90;;;;;;5057704;28;20033;-78
2021/03/18 02:21:30;;;;;;;4.38;0.10;;;1.30;99.90;;;;;;5056778;28;20029;-79
2021/03/18 02:24:09;;;;;;;4.38;0.20;;;1.30;99.90;;;;;;5058205;28;20478;-76
2021/03/18 02:26:56;;;;;;;1.35;0.45;;;1.30;99.90;;;;;;5056768;28;20033;-76
2021/03/18 02:30:01;;;;;;;3.22;0.22;;;1.30;99.90;;;;;;5058114;28;20107;-79
2021/03/18 02:32:36;;;;;;;5.55;0.57;;;1.30;99.90;;;;;;5056131;28;20056;-80
2021/03/18 02:35:25;;;;;;;3.80;0.55;;;1.40;99.90;;;;;;5057182;28;20082;-76
2021/03/18 02:38:09;;;;;;;11.75;0.95;;;1.40;99.90;;;;;;5056471;28;20470;-76
2021/03/18 02:40:43;;;;;;;13.43;1.65;;;1.40;99.90;;;;;;5057861;28;20363;-77
2021/03/18 02:43:12;;;;;;;3.33;0.77;;;1.50;99.90;;;;;;5057163;28;20025;-80
2021/03/18 02:45:42;;;;;;;5.93;0.90;;;1.50;99.90;;;;;;5057115;28;20028;-76
2021/03/18 02:48:13;;;;;;;4.38;0.22;;;1.50;99.90;;;;;;5056054;28;20539;-74
2021/03/18 02:50:40;;;;;;;5.45;0.47;;;1.50;99.90;;;;;;5057674;28;20074;-74
2021/03/18 02:53:08;;;;;;;8.95;0.47;;;1.50;99.90;;;;;;5058138;28;20032;-76
2021/03/18 02:55:35;;;;;;;11.63;0.73;;;1.50;99.90;;;;;;5055710;28;20482;-76
2021/03/18 02:58:02;;;;;;;4.45;0.52;;;1.60;99.90;;;;;;5056142;28;20087;-76
2021/03/18 03:00:29;;;;;;;8.85;0.65;;;1.60;99.90;;;;;;5056569;28;20033;-76
2021/03/18 03:02:55;;;;;;;3.95;0.85;;;1.70;99.90;;;;;;5056230;28;20044;-77
2021/03/18 03:05:24;;;;;;;3.85;0.40;;;1.70;99.90;;;;;;5056189;28;20021;-77
2021/03/18 03:07:51;;;;;;;3.60;0.50;;;1.70;99.90;;;;;;5056774;28;20025;-79
2021/03/18 03:10:21;;;;;;;5.53;0.47;;;1.70;99.90;;;;;;5056920;28;20018;-76
2021/03/18 03:12:48;;;;;;;11.30;0.73;;;1.80;99.90;;;;;;5055895;28;20083;-76
2021/03/18 03:15:15;;;;;;;3.13;0.20;;;1.80;99.90;;;;;;5058275;28;20028;-77
2021/03/18 03:17:42;;;;;;;5.30;0.50;;;1.90;99.90;;;;;;5057039;28;20021;-78
2021/03/18 03:20:10;;;;;;;5.80;1.05;;;1.90;99.90;;;;;;5055283;28;20025;-79
2021/03/18 03:22:37;;;;;;;8.87;0.83;;;2.00;99.90;;;;;;5055912;28;20021;-78
2021/03/18 03:25:09;;;;;;;8.77;0.70;;;2.00;99.90;;;;;;5056193;28;20491;-78
2021/03/18 03:27:35;;;;;;;19.55;1.48;;;2.10;99.90;;;;;;5054355;28;20028;-76
2021/03/18 03:30:02;;;;;;;9.38;0.93;;;2.10;99.90;;;;;;5055791;28;20033;-76
2021/03/18 03:32:28;;;;;;;6.93;0.52;;;2.20;99.90;;;;;;5055627;28;20359;-76
2021/03/18 03:34:53;;;;;;;5.80;0.65;;;2.20;99.90;;;;;;5054267;28;20124;-79
2021/03/18 03:37:19;;;;;;;7.35;1.00;;;2.20;99.90;;;;;;5074548;28;20082;-79
2021/03/18 03:39:45;;;;;;;5.30;0.60;;;2.30;99.90;;;;;;5058064;28;20028;-77
2021/03/18 03:42:11;;;;;;;11.98;1.40;;;2.30;99.90;;;;;;5076034;28;20457;-77
2021/03/18 03:44:39;;;;;;;8.02;0.55;;;2.40;99.90;;;;;;5076778;28;20042;-74
2021/03/18 03:47:07;;;;;;;3.78;0.70;;;2.40;99.90;;;;;;5059031;28;20074;-77
2021/03/18 03:49:33;;;;;;;3.65;0.70;;;2.50;99.90;;;;;;5075939;28;20393;-74
2021/03/18 03:52:14;;;;;;;3.90;0.47;;;2.50;99.90;;;;;;5075547;28;20474;-75
2021/03/18 03:54:45;;;;;;;9.65;0.65;;;2.50;99.90;;;;;;5075572;28;20039;-78
2021/03/18 03:57:25;;;;;;;10.57;0.70;;;2.50;99.90;;;;;;5076132;28;20031;-77
2021/03/18 03:59:55;;;;;;;7.82;0.63;;;2.60;99.90;;;;;;5076552;28;20029;-78
2021/03/18 04:02:22;;;;;;;6.75;1.50;;;2.60;99.90;;;;;;5075377;28;20448;-77
2021/03/18 04:04:49;;;;;;;5.40;0.90;;;2.70;99.90;;;;;;5075338;28;20065;-77
2021/03/18 04:07:22;;;;;;;5.53;0.80;;;2.70;99.90;;;;;;5075419;28;20074;-77
2021/03/18 04:09:49;;;;;;;6.07;0.60;;;2.70;99.90;;;;;;5076228;28;20024;-72
2021/03/18 04:12:18;;;;;;;4.20;0.90;;;2.80;99.90;;;;;;5079593;28;20016;-72
2021/03/18 04:14:53;;;;;;;6.40;0.57;;;2.80;99.90;;;;;;5079892;28;20488;-72
2021/03/18 04:17:21;;;;;;;6.50;1.45;;;2.80;99.90;;;;;;5078409;28;20443;-73
2021/03/18 04:19:49;;;;;;;6.60;1.00;;;2.80;99.90;;;;;;5062876;28;20074;-72
2021/03/18 04:22:17;;;;;;;4.38;1.00;;;3.10;99.90;;;;;;5081243;28;20043;-72
2021/03/18 04:24:45;;;;;;;3.60;0.47;;;2.80;99.90;;;;;;5080043;28;20059;-72
2021/03/18 04:27:11;;;;;;;3.80;0.40;;;2.80;99.90;;;;;;5077472;28;20017;-72
2021/03/18 04:29:38;;;;;;;4.32;0.47;;;2.80;99.90;;;;;;5058162;28;20070;-75
2021/03/18 04:32:06;;;;;;;4.45;0.57;;;2.80;99.90;;;;;;5075616;28;20481;-75
2021/03/18 04:34:32;;;;;;;1.58;0.17;;;2.80;99.90;;;;;;5074834;28;20021;-77
2021/03/18 04:36:57;;;;;;;4.60;0.30;;;2.80;99.90;;;;;;5057230;28;20036;-76
2021/03/18 04:39:23;;;;;;;3.20;0.15;;;2.80;99.90;;;;;;5075360;28;20024;-76
2021/03/18 04:41:51;;;;;;;5.53;0.60;;;2.80;99.90;;;;;;5056895;28;20370;-75
2021/03/18 04:44:17;;;;;;;3.90;0.57;;;2.70;99.90;;;;;;5076875;28;20044;-76
2021/03/18 04:46:46;;;;;;;6.50;0.45;;;2.70;99.90;;;;;;5057906;28;20070;-77
2021/03/18 04:49:13;;;;;;;;;;;2.60;99.90;;;;;;5073243;28;20024;-75
2021/03/18 04:51:44;;;;;;;1.27;0.38;;;2.70;99.90;;;;;;5075181;28;20386;-75
2021/03/18 04:54:10;;;;;;;1.75;0.20;;;2.70;99.90;;;;;;5075870;28;20039;-77
2021/03/18 04:56:39;;;;;;;5.13;0.65;;;2.70;99.90;;;;;;5058217;23;20567;-76
2021/03/18 04:59:07;;;;;;;5.75;0.40;;;2.70;99.90;;;;;;5055170;28;20028;-74
2021/03/18 05:01:34;;;;;;;5.82;1.02;;;2.60;99.90;;;;;;5055632;28;20017;-74
2021/03/18 05:04:01;;;;;;;4.93;1.25;;;2.60;99.90;;;;;;5038558;28;20378;-78
2021/03/18 05:06:29;;;;;;;12.27;1.38;;;2.60;99.90;;;;;;5036391;28;20013;-76
2021/03/18 05:08:55;;;;;;;7.70;1.30;;;2.60;99.90;;;;;;5055745;28;20074;-73
2021/03/18 05:11:22;;;;;;;9.73;0.85;;;2.60;99.90;;;;;;5056315;28;20028;-77
2021/03/18 05:13:48;;;;;;;4.95;0.70;;;2.50;99.90;;;;;;5036828;28;20459;-76
2021/03/18 05:16:15;;;;;;;6.15;1.20;;;2.50;99.90;;;;;;5054291;28;20033;-78
2021/03/18 05:18:41;;;;;;;4.82;0.95;;;2.50;99.90;;;;;;5036223;28;20059;-75
2021/03/18 05:21:07;;;;;;;8.13;1.05;;;2.50;99.90;;;;;;5054934;28;20021;-75
2021/03/18 05:23:33;;;;;;;6.80;1.52;;;2.60;99.90;;;;;;5054769;28;20482;-75
2021/03/18 05:25:59;;;;;;;10.38;1.15;;;2.60;99.90;;;;;;5036192;28;20024;-78
2021/03/18 05:28:26;;;;;;;5.30;0.82;;;2.60;99.90;;;;;;5054376;28;20436;-78
2021/03/18 05:30:52;;;;;;;7.57;0.80;;;2.60;99.90;;;;;;5036977;28;20028;-78
2021/03/18 05:33:18;;;;;;;5.15;0.70;;;2.70;99.90;;;;;;5054042;28;20029;-77
2021/03/18 05:35:44;;;;;;;5.90;1.27;;;2.60;99.90;;;;;;5054470;28;20021;-76
2021/03/18 05:38:12;;;;;;;5.60;1.27;;;2.70;99.90;;;;;;5036450;28;20175;-77
2021/03/18 05:40:39;;;;;;;8.65;0.82;;;2.70;99.90;;;;;;5054748;28;20021;-77
2021/03/18 05:43:06;;;;;;;4.38;0.70;;;2.70;99.90;;;;;;5035232;28;20501;-75
2021/03/18 05:45:32;;;;;;;9.43;1.73;;;2.70;99.90;;;;;;5054190;28;20025;-73
2021/03/18 05:47:59;;;;;;;5.75;1.25;;;2.80;99.90;;;;;;5037012;28;20028;-74
2021/03/18 05:50:25;;;;;;;12.05;1.13;;;2.80;99.90;;;;;;5054832;28;20146;-72
2021/03/18 05:52:52;;;;;;;4.65;2.25;;;2.80;99.90;;;;;;5055433;28;20536;-73
2021/03/18 05:55:22;;;;;;;10.43;1.48;;;2.90;99.90;;;;;;5037586;28;20028;-73
2021/03/18 05:57:50;;;;;;;9.75;1.67;;;2.90;99.90;;;;;;5054177;28;20033;-78
2021/03/18 06:00:16;;;;;;;5.75;1.65;;;2.90;99.90;;;;;;5056273;28;20021;-74
2021/03/18 06:02:42;;;;;;;9.10;1.08;;;2.90;99.90;;;;;;5085081;22;20045;-75
2021/03/18 06:05:10;;;;;;;5.55;1.40;;;2.90;99.90;;;;;;5074839;28;20023;-75
2021/03/18 06:07:41;;;;;;;5.78;0.95;;;2.90;99.90;;;;;;5075289;28;20020;-74
2021/03/18 06:10:09;;;;;;;6.60;1.70;;;3.00;99.90;;;;;;5056660;28;20019;-76
2021/03/18 06:12:37;;;;;;;10.50;1.98;;;3.00;99.90;;;;;;5056276;28;20020;-76
2021/03/18 06:15:06;;;;;;;8.07;2.53;;;3.00;99.90;;;;;;5055812;28;20387;-76
2021/03/18 06:17:33;;;;;;;7.53;2.10;;;3.00;99.90;;;;;;5059437;28;20052;-76
2021/03/18 06:20:00;;;;;;;8.35;2.05;;;3.00;99.90;;;;;;5077868;28;20024;-77
2021/03/18 06:22:37;;;;;;;12.70;3.10;;;3.10;99.90;;;;;;5059619;28;20222;-76
2021/03/18 06:25:05;;;;;;;9.65;2.47;;;3.10;99.90;;;;;;5077622;28;20025;-73
2021/03/18 06:27:30;;;;;;;6.65;2.70;;;3.20;99.90;;;;;;5077960;28;20024;-75
2021/03/18 06:29:56;;;;;;;12.73;2.47;;;3.20;99.90;;;;;;5077671;28;20078;-76
2021/03/18 06:32:23;;;;;;;9.07;2.00;;;3.20;99.90;;;;;;5059132;28;20024;-76
2021/03/18 06:34:52;;;;;;;16.63;3.17;;;3.30;99.90;;;;;;5059724;28;20021;-76
2021/03/18 06:37:49;;;;;;;6.82;1.92;;;3.30;99.90;;;;;;5077148;28;20017;-75
2021/03/18 06:40:18;;;;;;;7.65;1.92;;;3.40;99.90;;;;;;5043827;28;20040;-75
2021/03/18 06:42:57;;;;;;;15.85;3.22;;;3.50;99.90;;;;;;5058641;28;20074;-76
2021/03/18 06:45:28;;;;;;;12.82;2.80;;;3.50;99.90;;;;;;5059520;28;20484;-77
2021/03/18 06:47:58;;;;;;;7.30;2.30;;;3.60;99.90;;;;;;5059323;28;20016;-76
2021/03/18 06:50:40;;;;;;;13.52;2.78;;;3.70;99.90;;;;;;5113528;22;20498;-75
2021/03/18 06:53:18;;;;;;;14.30;3.30;;;3.80;99.90;;;;;;5115480;22;20011;-77
2021/03/18 06:55:44;;;;;;;14.18;2.28;;;3.90;99.90;;;;;;5079690;28;20031;-77
2021/03/18 06:58:27;;;;;;;11.77;2.85;;;4.00;99.90;;;;;;5104971;28;20535;-77
2021/03/18 07:04:06;;;;;;;10.55;2.00;;;4.10;99.90;;;;;;5120460;28;20047;-78
2021/03/18 07:06:35;;;;;;;17.48;3.30;;;4.20;99.90;;;;;;5102583;28;20020;-77
2021/03/18 07:09:13;;;;;;;18.55;2.63;;;4.30;99.90;;;;;;5099100;28;20052;-78
2021/03/18 07:11:41;;;;;;;17.25;3.35;;;4.40;99.90;;;;;;5113276;28;20041;-78
2021/03/18 07:14:09;;;;;;;10.00;1.60;;;4.50;99.90;;;;;;5118184;28;20051;-77
2021/03/18 07:16:46;;;;;;;20.02;2.70;;;4.50;99.90;;;;;;5089031;28;20058;-78
2021/03/18 07:19:41;;;;;;;13.00;2.20;;;4.60;99.90;;;;;;5097783;28;20054;-78
2021/03/18 07:22:19;;;;;;;18.30;4.18;;;4.80;99.90;;;;;;5074731;28;20072;-76
2021/03/18 07:24:52;;;;;;;13.35;2.13;;;4.90;99.90;;;;;;5097484;28;20115;-76
2021/03/18 07:27:18;;;;;;;11.55;2.85;;;5.00;99.90;;;;;;5099341;28;20115;-73
2021/03/18 07:29:52;;;;;;;14.55;1.65;;;5.10;99.90;;;;;;5113280;28;20071;-79
2021/03/18 07:32:17;;;;;;;8.82;1.65;;;5.20;99.90;;;;;;5116386;28;20034;-75
2021/03/18 07:34:44;;;;;;;19.83;2.65;;;5.30;99.90;;;;;;5118069;28;20073;-78
2021/03/18 07:37:11;;;;;;;8.07;1.67;;;5.40;99.90;;;;;;5117092;28;20020;-79
2021/03/18 07:39:38;;;;;;;10.88;1.42;;;7.00;99.90;;;;;;5115318;28;20160;-78
2021/03/18 07:42:05;;;;;;;15.77;2.20;;;5.60;99.90;;;;;;5093821;28;20098;-79
2021/03/18 07:44:33;;;;;;;13.48;1.98;;;5.60;99.90;;;;;;5079059;28;20086;-79
2021/03/18 07:47:00;;;;;;;17.67;2.70;;;5.60;99.90;;;;;;5120998;27;20354;-79
2021/03/18 07:49:35;;;;;;;14.73;3.13;;;5.70;99.90;;;;;;5112275;28;20016;-80
2021/03/18 07:52:04;;;;;;;19.63;2.95;;;5.70;99.90;;;;;;5107994;28;20020;-77
2021/03/18 07:54:32;;;;;;;19.38;3.10;;;5.80;99.90;;;;;;5095756;28;20141;-75
2021/03/18 07:56:58;;;;;;;10.40;1.50;;;5.70;99.90;;;;;;5082279;28;20024;-77
2021/03/18 07:59:33;;;;;;;18.98;2.47;;;5.90;99.90;;;;;;5116440;28;20365;-76
2021/03/18 08:02:21;;;;;;;9.02;1.80;;;5.90;99.90;;;;;;5097983;28;20470;-75
2021/03/18 08:04:52;;;;;;;16.05;2.25;;;6.00;99.90;;;;;;5118103;28;20028;-75
2021/03/18 08:07:44;;;;;;;19.70;1.77;;;6.00;99.90;;;;;;5098490;28;20484;-76
2021/03/18 08:10:38;;;;;;;26.77;2.35;;;6.00;99.90;;;;;;5111029;22;20071;-75
2021/03/18 08:13:04;;;;;;;19.73;3.45;;;6.10;99.90;;;;;;5097021;28;20024;-74
2021/03/18 08:15:32;;;;;;;19.15;1.48;;;6.30;99.90;;;;;;5078858;28;20028;-76
2021/03/18 08:18:20;;;;;;;16.60;2.45;;;6.30;99.90;;;;;;5080071;28;20034;-76
2021/03/18 08:20:46;;;;;;;12.98;2.00;;;6.40;99.90;;;;;;5055457;28;20075;-76
2021/03/18 08:23:23;;;;;;;26.40;3.30;;;6.50;99.90;;;;;;5069191;28;20033;-76
2021/03/18 08:25:54;;;;;;;17.00;1.15;;;6.60;99.90;;;;;;5075605;28;20048;-76
2021/03/18 08:28:44;;;;;;;20.83;2.33;;;6.70;99.90;;;;;;5061871;28;20028;-75
2021/03/18 08:31:19;;;;;;;17.02;2.15;;;6.70;99.90;;;;;;5036850;28;20029;-75
2021/03/18 08:33:54;;;;;;;31.40;3.20;;;6.80;99.90;;;;;;5040597;28;20089;-74
2021/03/18 08:36:30;;;;;;;24.27;1.90;;;6.90;99.90;;;;;;5074757;28;20032;-76
2021/03/18 08:38:57;;;;;;;11.88;2.85;;;6.90;99.90;;;;;;5074411;28;20021;-76
2021/03/18 08:41:25;;;;;;;19.73;2.25;;;6.90;99.90;;;;;;5076304;28;20490;-74
2021/03/18 08:44:18;;;;;;;16.20;2.42;;;6.90;99.90;;;;;;5056699;28;20033;-76
2021/03/18 08:46:53;;;;;;;26.05;2.90;;;7.00;99.90;;;;;;5073909;28;20032;-77
2021/03/18 08:49:40;;;;;;;19.70;1.80;;;7.00;99.90;;;;;;5057403;28;20032;-75
2021/03/18 08:52:27;;;;;;;16.83;2.10;;;7.00;99.90;;;;;;5057486;28;20167;-77
2021/03/18 08:54:54;;;;;;;18.60;3.55;;;7.00;99.90;;;;;;5031450;28;20032;-78
2021/03/18 08:57:19;;;;;;;15.77;2.63;;;6.90;99.90;;;;;;5055654;28;20362;-77
2021/03/18 08:59:46;;;;;;;25.70;3.72;;;6.90;99.90;;;;;;5053642;28;20035;-75
2021/03/18 09:02:15;;;;;;;27.10;3.65;;;7.00;99.90;;;;;;5056715;28;20032;-74
2021/03/18 09:07:54;;;;;;;20.75;3.00;;;7.10;99.90;;;;;;5074886;28;20046;-77
2021/03/18 09:10:25;;;;;;;23.67;3.53;;;7.20;99.90;;;;;;5073271;28;20025;-78
2021/03/18 09:13:03;;;;;;;21.98;2.17;;;7.20;99.90;;;;;;5056886;28;20029;-77
2021/03/18 09:15:38;;;;;;;28.58;2.53;;;7.30;99.90;;;;;;5057064;28;20085;-76
2021/03/18 09:18:28;;;;;;;13.90;2.55;;;7.40;99.90;;;;;;5056783;28;20063;-77
2021/03/18 09:21:01;;;;;;;18.42;2.72;;;7.40;99.90;;;;;;5057255;28;20021;-76
2021/03/18 09:23:32;;;;;;;21.40;2.80;;;7.50;99.90;;;;;;5073936;22;20502;-75
2021/03/18 09:26:04;;;;;;;14.85;2.35;;;7.50;99.90;;;;;;5067250;22;20044;-75
2021/03/18 09:28:34;;;;;;;25.98;5.22;;;7.60;99.90;;;;;;5054373;28;20021;-78
2021/03/18 09:31:00;;;;;;;17.85;2.72;;;7.60;99.90;;;;;;5054623;28;20033;-79
2021/03/18 09:33:27;;;;;;;17.27;1.75;;;7.60;99.90;;;;;;5056109;23;20141;-78
2021/03/18 09:35:55;;;;;;;14.13;1.33;;;7.60;99.90;;;;;;5065696;23;20017;-77
2021/03/18 09:38:24;;;;;;;10.43;1.92;;;9.70;99.90;;;;;;5033452;28;20057;-77
2021/03/18 09:40:51;;;;;;;22.60;2.47;;;7.60;99.90;;;;;;5015968;28;20025;-78
2021/03/18 09:43:18;;;;;;;17.25;1.38;;;7.70;99.90;;;;;;5034351;28;20036;-76
2021/03/18 09:45:52;;;;;;;6.38;0.98;;;8.60;99.90;;;;;;5062846;23;20055;-77
2021/03/18 09:48:27;;;;;;;12.82;1.20;;;7.70;99.90;;;;;;5068114;23;20057;-76
2021/03/18 09:50:53;;;;;;;13.65;2.25;;;7.70;99.90;;;;;;5054594;28;20064;-76
2021/03/18 09:53:19;;;;;;;15.57;2.13;;;7.70;99.90;;;;;;5057748;28;20027;-77
2021/03/18 09:55:45;;;;;;;15.18;2.05;;;7.70;99.90;;;;;;5057781;28;20029;-77
2021/03/18 09:58:14;;;;;;;13.13;1.38;;;9.40;99.90;;;;;;5057221;28;20017;-77
2021/03/18 10:00:40;;;;;;;15.60;2.38;;;7.70;99.90;;;;;;5039219;28;20482;-77
2021/03/18 10:03:06;;;;;;;14.07;1.60;;;7.80;99.90;;;;;;5057266;28;20108;-77
2021/03/18 10:05:33;;;;;;;14.48;1.92;;;7.80;99.90;;;;;;5039446;28;20018;-77
2021/03/18 10:07:59;;;;;;;22.05;2.90;;;7.90;99.90;;;;;;5057077;28;20074;-76
2021/03/18 10:10:25;;;;;;;9.95;1.55;;;8.20;99.90;;;;;;5039193;28;20017;-77
2021/03/18 10:12:52;;;;;;;16.65;1.55;;;7.90;99.90;;;;;;5039021;28;20059;-77
2021/03/18 10:15:19;;;;;;;15.18;1.90;;;7.90;99.90;;;;;;5057309;28;20025;-77
2021/03/18 10:17:47;;;;;;;13.65;1.95;;;8.00;99.90;;;;;;5056736;28;20025;-77
2021/03/18 10:20:20;;;;;;;18.42;2.03;;;8.00;99.90;;;;;;5038925;28;20028;-77
2021/03/18 10:22:50;;;;;;;10.38;2.53;;;8.00;99.90;;;;;;5056580;28;20021;-76
2021/03/18 10:25:18;;;;;;;15.13;2.33;;;8.00;99.90;;;;;;5040189;28;20021;-77
2021/03/18 10:27:50;;;;;;;11.15;1.30;;;8.10;99.90;;;;;;5056759;28;20029;-80
2021/03/18 10:30:23;;;;;;;7.25;0.88;;;8.20;99.90;;;;;;5057697;28;20028;-80
2021/03/18 10:33:13;;;;;;;18.38;2.03;;;8.30;99.90;;;;;;5057004;28;20439;-78
2021/03/18 10:36:03;;;;;;;22.88;2.63;;;8.30;99.90;;;;;;5056910;28;20029;-77
2021/03/18 10:38:39;;;;;;;15.63;2.03;;;8.30;99.90;;;;;;5056109;28;20017;-78
2021/03/18 10:41:08;;;;;;;34.45;2.22;;;8.30;99.90;;;;;;5060149;28;20025;-79
2021/03/18 10:43:40;;;;;;;15.05;1.40;;;8.40;99.90;;;;;;5040139;28;20401;-79
2021/03/18 10:46:08;;;;;;;9.63;2.08;;;8.40;99.90;;;;;;5042237;28;20025;-80
2021/03/18 10:48:37;;;;;;;12.60;1.35;;;8.50;99.90;;;;;;5042413;28;20033;-79
2021/03/18 10:51:09;;;;;;;18.70;1.58;;;8.50;99.90;;;;;;5059987;28;20021;-77
2021/03/18 10:53:36;;;;;;;14.85;2.05;;;8.60;99.90;;;;;;5060755;28;20470;-79
2021/03/18 10:56:04;;;;;;;10.35;1.17;;;8.70;99.90;;;;;;5059655;28;20033;-77
2021/03/18 10:58:29;;;;;;;15.73;2.22;;;8.80;99.90;;;;;;5055914;28;20104;-77
2021/03/18 11:01:01;;;;;;;15.73;2.08;;;9.00;99.90;;;;;;5055945;28;20593;-77
2021/03/18 11:03:29;;;;;;;11.23;1.58;;;9.10;99.90;;;;;;5038725;28;20093;-78
2021/03/18 11:05:56;;;;;;;11.20;1.15;;;9.20;99.90;;;;;;5056581;28;20029;-78
2021/03/18 11:08:30;;;;;;;10.38;0.68;;;9.30;99.90;;;;;;5042365;23;20127;-75
2021/03/18 11:10:58;;;;;;;18.42;3.15;;;9.20;99.90;;;;;;5037872;28;20028;-80
2021/03/18 11:13:31;;;;;;;18.17;0.80;;;9.30;99.90;;;;;;5020156;28;20025;-76
2021/03/18 11:16:03;;;;;;;8.55;0.70;;;9.30;99.90;;;;;;5089035;22;20044;-77
2021/03/18 11:18:42;;;;;;;13.90;1.73;;;9.40;99.90;;;;;;5095820;28;20546;-78
2021/03/18 11:21:19;;;;;;;14.10;1.75;;;9.40;99.90;;;;;;5097855;28;20377;-77
2021/03/18 11:23:46;;;;;;;15.68;1.08;;;9.40;99.90;;;;;;5078753;28;20035;-77
2021/03/18 11:26:13;;;;;;;11.50;0.60;;;9.40;99.90;;;;;;5093505;28;20024;-80
2021/03/18 11:28:58;;;;;;;9.70;0.77;;;9.40;99.60;;;;;;5098441;28;20038;-79
2021/03/18 11:31:28;;;;;;;13.65;1.35;;;9.40;98.90;;;;;;5113645;22;20060;-87
2021/03/18 11:33:55;;;;;;;8.43;1.27;;;9.30;97.90;;;;;;5079527;28;20046;-88
2021/03/18 11:36:22;;;;;;;6.07;0.45;;;9.30;99.20;;;;;;5080088;28;20536;-88
2021/03/18 11:38:49;;;;;;;15.75;0.73;;;9.40;99.90;;;;;;5077441;28;20036;-87
2021/03/18 11:41:15;;;;;;;12.98;1.25;;;9.70;99.40;;;;;;5048438;28;20457;-86
2021/03/18 11:43:41;;;;;;;10.10;0.45;;;9.70;99.70;;;;;;5059851;28;20039;-87
2021/03/18 11:46:07;;;;;;;7.40;0.47;;;9.80;97.00;;;;;;5066670;23;20128;-77
2021/03/18 11:48:34;;;;;;;9.70;0.43;;;9.80;97.90;;;;;;5037035;28;20043;-77
2021/03/18 11:51:00;;;;;;;11.02;0.47;;;9.80;97.50;;;;;;5037014;28;20112;-77
2021/03/18 11:53:25;;;;;;;13.38;1.30;;;9.80;98.80;;;;;;5036953;28;20049;-77
2021/03/18 11:55:52;;;;;;;9.85;0.57;;;9.80;98.40;;;;;;5037188;28;20052;-76
2021/03/18 11:58:18;;;;;;;6.50;0.55;;;9.80;97.70;;;;;;5044381;28;20052;-76
2021/03/18 12:00:44;;;;;;;11.07;1.70;;;9.80;98.90;;;;;;5036578;28;20090;-77
2021/03/18 12:03:10;;;;;;;7.82;0.40;;;9.70;97.50;;;;;;5054420;28;20483;-76
2021/03/18 12:05:37;;;;;;;3.53;0.10;;;10.90;95.90;;;;;;5036874;28;20489;-80
2021/03/18 12:08:04;;;;;;;8.88;1.38;;;9.60;94.00;;;;;;5055421;28;20151;-80
2021/03/18 12:10:31;;;;;;;8.38;0.63;;;9.70;96.00;;;;;;5037152;28;20082;-76
2021/03/18 12:12:56;;;;;;;6.28;0.55;;;9.60;93.50;;;;;;5074098;22;20060;-77
2021/03/18 12:15:23;;;;;;;7.85;0.52;;;9.20;94.30;;;;;;5075963;28;20056;-78
2021/03/18 12:17:48;;;;;;;13.35;0.55;;;11.60;93.50;;;;;;5074665;28;20163;-76
2021/03/18 12:20:17;;;;;;;10.45;1.25;;;9.50;92.40;;;;;;5075127;28;20053;-77
2021/03/18 12:22:44;;;;;;;8.30;1.42;;;9.70;92.00;;;;;;5075313;28;20078;-79
2021/03/18 12:25:12;;;;;;;9.25;0.75;;;9.70;92.50;;;;;;5056908;28;20019;-77
2021/03/18 12:27:39;;;;;;;10.77;0.80;;;9.70;93.00;;;;;;5073966;28;20025;-76
2021/03/18 12:30:10;;;;;;;12.90;1.45;;;9.70;91.70;;;;;;5057276;28;20025;-77
2021/03/18 12:32:36;;;;;;;9.95;0.50;;;9.80;92.50;;;;;;5057690;28;20458;-81
2021/03/18 12:35:03;;;;;;;8.68;0.47;;;9.90;90.40;;;;;;5074791;28;20027;-77
2021/03/18 12:37:28;;;;;;;4.75;0.25;;;10.00;89.70;;;;;;5056764;28;20024;-76
2021/03/18 12:39:54;;;;;;;17.45;0.73;;;10.00;89.80;;;;;;5057226;28;20029;-75
2021/03/18 12:42:20;;;;;;;8.02;1.05;;;10.10;88.40;;;;;;5075131;28;20047;-80
2021/03/18 12:44:45;;;;;;;8.15;0.95;;;9.90;90.00;;;;;;5056738;28;20013;-78
2021/03/18 12:47:12;;;;;;;7.82;0.75;;;11.00;91.90;;;;;;5073666;28;20021;-79
2021/03/18 12:49:38;;;;;;;9.98;0.05;;;9.80;92.80;;;;;;5058299;28;20036;-78
2021/03/18 12:52:04;;;;;;;9.77;0.20;;;9.70;93.90;;;;;;5057267;28;20021;-76
2021/03/18 12:54:30;;;;;;;10.38;0.35;;;9.60;92.00;;;;;;5075761;28;20424;-77
2021/03/18 12:56:56;;;;;;;8.18;0.20;;;9.50;92.50;;;;;;5074923;28;20024;-76
2021/03/18 12:59:21;;;;;;;8.05;0.65;;;9.40;95.00;;;;;;5074329;28;20020;-78
2021/03/18 13:01:47;;;;;;;5.88;0.43;;;9.20;96.70;;;;;;5083136;22;20048;-78
2021/03/18 13:04:13;;;;;;;12.30;0.90;;;8.60;98.40;;;;;;5036037;28;20072;-79
2021/03/18 13:06:42;;;;;;;7.40;0.08;;;9.00;99.90;;;;;;5055383;28;20013;-77
2021/03/18 13:09:09;;;;;;;8.85;0.43;;;9.10;99.90;;;;;;5055047;28;20150;-81
2021/03/18 13:11:35;;;;;;;8.07;0.98;;;9.40;99.90;;;;;;5036627;28;20025;-79